sensor_id;sensor_type;location;lat;lon;timestamp;pressure;altitude;pressure_sealevel;temperature;humidity
19884;BME280;10104;50.732;10.174;2023-02-22T00:01:26;97909.75;;;8.89;80.55
19884;BME280;10104;50.732;10.174;2023-02-22T00:03:58;97907.09;;;8.89;81.31
19884;BME280;10104;50.732;10.174;2023-02-22T00:06:21;97904.25;;;8.76;81.26
19884;BME280;10104;50.732;10.174;2023-02-22T00:08:46;97909.34;;;8.78;81.53
19884;BME280;10104;50.732;10.174;2023-02-22T00:11:09;97905.31;;;8.67;81.81
19884;BME280;10104;50.732;10.174;2023-02-22T00:13:31;97898.41;;;8.58;81.17
19884;BME280;10104;50.732;10.174;2023-02-22T00:15:52;97904.53;;;8.59;80.78
19884;BME280;10104;50.732;10.174;2023-02-22T00:18:17;97907.16;;;8.59;81.02
19884;BME280;10104;50.732;10.174;2023-02-22T00:20:39;97898.94;;;8.53;81.20
19884;BME280;10104;50.732;10.174;2023-02-22T00:23:01;97905.09;;;8.46;81.41
19884;BME280;10104;50.732;10.174;2023-02-22T00:25:23;97894.38;;;8.47;80.90
19884;BME280;10104;50.732;10.174;2023-02-22T00:27:45;97895.78;;;8.35;81.16
19884;BME280;10104;50.732;10.174;2023-02-22T00:30:13;97894.03;;;8.20;80.84
19884;BME280;10104;50.732;10.174;2023-02-22T00:32:35;97892.69;;;8.24;81.27
19884;BME280;10104;50.732;10.174;2023-02-22T00:34:57;97895.47;;;8.22;81.26
19884;BME280;10104;50.732;10.174;2023-02-22T00:37:19;97889.75;;;8.19;81.45
19884;BME280;10104;50.732;10.174;2023-02-22T00:39:41;97894.63;;;7.91;83.28
19884;BME280;10104;50.732;10.174;2023-02-22T00:42:02;97896.13;;;7.93;81.51
19884;BME280;10104;50.732;10.174;2023-02-22T00:44:24;97897.41;;;7.97;81.93
19884;BME280;10104;50.732;10.174;2023-02-22T00:46:45;97891.84;;;7.92;81.74
19884;BME280;10104;50.732;10.174;2023-02-22T00:49:07;97890.69;;;7.95;81.69
19884;BME280;10104;50.732;10.174;2023-02-22T00:51:29;97889.50;;;7.97;81.60
19884;BME280;10104;50.732;10.174;2023-02-22T00:53:50;97886.56;;;7.92;81.69
19884;BME280;10104;50.732;10.174;2023-02-22T00:56:12;97880.84;;;7.81;81.62
19884;BME280;10104;50.732;10.174;2023-02-22T00:58:33;97881.91;;;7.63;80.83
19884;BME280;10104;50.732;10.174;2023-02-22T01:00:55;97875.78;;;7.71;80.86
19884;BME280;10104;50.732;10.174;2023-02-22T01:03:18;97875.78;;;7.71;80.79
19884;BME280;10104;50.732;10.174;2023-02-22T01:05:40;97881.84;;;7.71;80.90
19884;BME280;10104;50.732;10.174;2023-02-22T01:08:03;97882.88;;;7.70;80.57
19884;BME280;10104;50.732;10.174;2023-02-22T01:10:29;97883.22;;;7.59;80.44
19884;BME280;10104;50.732;10.174;2023-02-22T01:12:51;97883.78;;;7.47;80.54
19884;BME280;10104;50.732;10.174;2023-02-22T01:15:17;97881.94;;;7.47;80.57
19884;BME280;10104;50.732;10.174;2023-02-22T01:17:42;97881.78;;;7.41;80.36
19884;BME280;10104;50.732;10.174;2023-02-22T01:20:06;97876.56;;;7.24;80.43
19884;BME280;10104;50.732;10.174;2023-02-22T01:22:32;97874.75;;;7.25;81.10
19884;BME280;10104;50.732;10.174;2023-02-22T01:24:54;97874.75;;;7.25;80.87
19884;BME280;10104;50.732;10.174;2023-02-22T01:27:16;97877.22;;;7.26;80.60
19884;BME280;10104;50.732;10.174;2023-02-22T01:29:38;97867.19;;;7.22;81.02
19884;BME280;10104;50.732;10.174;2023-02-22T01:32:00;97869.78;;;7.30;80.60
19884;BME280;10104;50.732;10.174;2023-02-22T01:34:22;97869.47;;;7.33;81.08
19884;BME280;10104;50.732;10.174;2023-02-22T01:36:44;97871.66;;;7.13;81.77
19884;BME280;10104;50.732;10.174;2023-02-22T01:39:06;97876.59;;;7.00;81.18
19884;BME280;10104;50.732;10.174;2023-02-22T01:41:27;97865.41;;;7.06;81.48
19884;BME280;10104;50.732;10.174;2023-02-22T01:43:49;97863.75;;;7.05;81.49
19884;BME280;10104;50.732;10.174;2023-02-22T01:46:21;97862.59;;;7.00;81.89
19884;BME280;10104;50.732;10.174;2023-02-22T01:48:47;97857.53;;;6.58;82.26
19884;BME280;10104;50.732;10.174;2023-02-22T01:51:14;97858.50;;;6.81;81.51
19884;BME280;10104;50.732;10.174;2023-02-22T01:54:07;97859.34;;;6.65;80.98
19884;BME280;10104;50.732;10.174;2023-02-22T01:56:33;97849.28;;;6.61;81.21
19884;BME280;10104;50.732;10.174;2023-02-22T01:59:02;97846.19;;;6.65;81.08
19884;BME280;10104;50.732;10.174;2023-02-22T02:01:27;97847.66;;;6.68;81.31
19884;BME280;10104;50.732;10.174;2023-02-22T02:03:50;97845.22;;;6.66;81.27
19884;BME280;10104;50.732;10.174;2023-02-22T02:06:13;97843.38;;;6.59;81.87
19884;BME280;10104;50.732;10.174;2023-02-22T02:08:41;97838.09;;;6.42;82.08
19884;BME280;10104;50.732;10.174;2023-02-22T02:11:09;97839.91;;;6.50;81.57
19884;BME280;10104;50.732;10.174;2023-02-22T02:13:31;97834.66;;;6.50;81.75
19884;BME280;10104;50.732;10.174;2023-02-22T02:15:54;97834.19;;;6.46;81.58
19884;BME280;10104;50.732;10.174;2023-02-22T02:18:16;97830.22;;;6.50;81.71
19884;BME280;10104;50.732;10.174;2023-02-22T02:21:12;97838.75;;;6.28;82.34
19884;BME280;10104;50.732;10.174;2023-02-22T02:26:42;97830.53;;;6.31;82.32
19884;BME280;10104;50.732;10.174;2023-02-22T02:31:55;97823.66;;;6.38;82.19
19884;BME280;10104;50.732;10.174;2023-02-22T02:40:18;97814.59;;;6.49;83.23
19884;BME280;10104;50.732;10.174;2023-02-22T02:42:54;97810.00;;;6.27;83.62
19884;BME280;10104;50.732;10.174;2023-02-22T02:45:32;97812.78;;;6.25;83.35
19884;BME280;10104;50.732;10.174;2023-02-22T02:47:57;97812.25;;;5.97;83.56
19884;BME280;10104;50.732;10.174;2023-02-22T02:50:59;97807.00;;;6.05;83.19
19884;BME280;10104;50.732;10.174;2023-02-22T02:53:25;97809.28;;;6.00;83.89
19884;BME280;10104;50.732;10.174;2023-02-22T02:55:47;97809.81;;;6.04;83.75
19884;BME280;10104;50.732;10.174;2023-02-22T02:58:16;97812.09;;;6.07;83.81
19884;BME280;10104;50.732;10.174;2023-02-22T03:00:40;97801.28;;;6.10;83.59
19884;BME280;10104;50.732;10.174;2023-02-22T03:03:17;97803.41;;;6.15;84.02
19884;BME280;10104;50.732;10.174;2023-02-22T03:05:51;97795.69;;;6.21;83.62
19884;BME280;10104;50.732;10.174;2023-02-22T03:08:34;97792.38;;;6.03;86.95
19884;BME280;10104;50.732;10.174;2023-02-22T03:11:21;97788.59;;;6.05;86.07
19884;BME280;10104;50.732;10.174;2023-02-22T03:13:55;97787.66;;;6.15;85.76
19884;BME280;10104;50.732;10.174;2023-02-22T03:19:05;97790.75;;;6.10;86.04
19884;BME280;10104;50.732;10.174;2023-02-22T03:26:48;97787.06;;;5.87;86.50
19884;BME280;10104;50.732;10.174;2023-02-22T03:29:14;97782.59;;;5.71;87.15
19884;BME280;10104;50.732;10.174;2023-02-22T03:31:44;97785.44;;;5.86;86.57
19884;BME280;10104;50.732;10.174;2023-02-22T03:34:19;97789.69;;;5.87;86.83
19884;BME280;10104;50.732;10.174;2023-02-22T03:36:49;97786.88;;;5.80;87.58
19884;BME280;10104;50.732;10.174;2023-02-22T03:39:17;97778.84;;;5.82;87.21
19884;BME280;10104;50.732;10.174;2023-02-22T03:41:42;97783.25;;;5.65;88.23
19884;BME280;10104;50.732;10.174;2023-02-22T03:44:12;97785.56;;;5.76;87.79
19884;BME280;10104;50.732;10.174;2023-02-22T03:46:37;97787.91;;;5.87;87.11
19884;BME280;10104;50.732;10.174;2023-02-22T03:51:24;97780.19;;;5.86;87.11
19884;BME280;10104;50.732;10.174;2023-02-22T03:53:46;97777.59;;;5.94;86.98
19884;BME280;10104;50.732;10.174;2023-02-22T03:56:16;97777.66;;;5.60;90.41
19884;BME280;10104;50.732;10.174;2023-02-22T03:58:41;97783.91;;;5.75;88.55
19884;BME280;10104;50.732;10.174;2023-02-22T04:01:08;97780.47;;;5.75;89.17
19884;BME280;10104;50.732;10.174;2023-02-22T04:03:30;97777.34;;;5.71;88.79
19884;BME280;10104;50.732;10.174;2023-02-22T04:05:51;97785.91;;;5.81;88.22
19884;BME280;10104;50.732;10.174;2023-02-22T04:08:14;97774.78;;;5.87;88.11
19884;BME280;10104;50.732;10.174;2023-02-22T04:10:35;97779.56;;;5.92;87.90
19884;BME280;10104;50.732;10.174;2023-02-22T04:12:58;97772.13;;;5.79;88.60
19884;BME280;10104;50.732;10.174;2023-02-22T04:15:22;97777.16;;;5.64;88.91
19884;BME280;10104;50.732;10.174;2023-02-22T04:17:43;97780.66;;;5.73;88.65
19884;BME280;10104;50.732;10.174;2023-02-22T04:20:05;97783.09;;;5.75;87.99
19884;BME280;10104;50.732;10.174;2023-02-22T04:22:27;97783.06;;;5.58;88.29
19884;BME280;10104;50.732;10.174;2023-02-22T04:24:48;97772.53;;;5.58;87.87
19884;BME280;10104;50.732;10.174;2023-02-22T04:27:10;97772.69;;;5.57;88.38
19884;BME280;10104;50.732;10.174;2023-02-22T04:29:32;97776.75;;;5.43;89.32
19884;BME280;10104;50.732;10.174;2023-02-22T04:31:54;97776.41;;;5.38;88.57
19884;BME280;10104;50.732;10.174;2023-02-22T04:34:15;97765.28;;;5.44;88.05
19884;BME280;10104;50.732;10.174;2023-02-22T04:36:37;97769.88;;;5.50;87.63
19884;BME280;10104;50.732;10.174;2023-02-22T04:39:00;97767.78;;;5.54;87.99
19884;BME280;10104;50.732;10.174;2023-02-22T04:41:22;97765.47;;;5.51;87.08
19884;BME280;10104;50.732;10.174;2023-02-22T04:43:45;97767.78;;;5.54;87.46
19884;BME280;10104;50.732;10.174;2023-02-22T04:46:07;97763.03;;;5.57;87.06
19884;BME280;10104;50.732;10.174;2023-02-22T04:48:29;97768.78;;;5.61;86.89
19884;BME280;10104;50.732;10.174;2023-02-22T04:50:50;97768.44;;;5.56;86.84
19884;BME280;10104;50.732;10.174;2023-02-22T04:53:12;97770.41;;;5.54;86.90
19884;BME280;10104;50.732;10.174;2023-02-22T04:55:33;97768.03;;;5.35;89.05
19884;BME280;10104;50.732;10.174;2023-02-22T04:57:55;97768.72;;;5.45;88.24
19884;BME280;10104;50.732;10.174;2023-02-22T05:00:18;97758.75;;;5.48;88.32
19884;BME280;10104;50.732;10.174;2023-02-22T05:02:42;97760.25;;;5.59;88.16
19884;BME280;10104;50.732;10.174;2023-02-22T05:05:04;97759.59;;;5.65;87.60
19884;BME280;10104;50.732;10.174;2023-02-22T05:07:25;97760.75;;;5.70;88.06
19884;BME280;10104;50.732;10.174;2023-02-22T05:09:47;97757.66;;;5.67;88.49
19884;BME280;10104;50.732;10.174;2023-02-22T05:12:08;97757.16;;;5.72;87.93
19884;BME280;10104;50.732;10.174;2023-02-22T05:14:30;97750.75;;;5.66;88.73
19884;BME280;10104;50.732;10.174;2023-02-22T05:16:54;97758.47;;;5.67;88.48
19884;BME280;10104;50.732;10.174;2023-02-22T05:19:16;97757.31;;;5.70;87.69
19884;BME280;10104;50.732;10.174;2023-02-22T05:21:37;97757.66;;;5.75;87.94
19884;BME280;10104;50.732;10.174;2023-02-22T05:24:00;97755.00;;;5.75;87.50
19884;BME280;10104;50.732;10.174;2023-02-22T05:26:22;97756.31;;;5.63;88.88
19884;BME280;10104;50.732;10.174;2023-02-22T05:28:43;97759.78;;;5.72;88.26
19884;BME280;10104;50.732;10.174;2023-02-22T05:31:05;97754.69;;;5.70;87.97
19884;BME280;10104;50.732;10.174;2023-02-22T05:33:30;97749.59;;;5.68;88.00
19884;BME280;10104;50.732;10.174;2023-02-22T05:35:51;97753.78;;;5.45;92.98
19884;BME280;10104;50.732;10.174;2023-02-22T05:38:13;97757.56;;;5.43;93.71
19884;BME280;10104;50.732;10.174;2023-02-22T05:40:35;97750.44;;;5.27;94.26
19884;BME280;10104;50.732;10.174;2023-02-22T05:42:57;97753.00;;;5.53;92.84
19884;BME280;10104;50.732;10.174;2023-02-22T05:45:22;97754.81;;;5.52;92.41
19884;BME280;10104;50.732;10.174;2023-02-22T05:47:44;97757.75;;;5.57;91.44
19884;BME280;10104;50.732;10.174;2023-02-22T05:50:06;97755.13;;;5.57;91.37
19884;BME280;10104;50.732;10.174;2023-02-22T05:52:28;97752.53;;;5.65;94.94
19884;BME280;10104;50.732;10.174;2023-02-22T05:54:49;97749.69;;;5.51;95.51
19884;BME280;10104;50.732;10.174;2023-02-22T05:57:11;97746.81;;;5.70;93.33
19884;BME280;10104;50.732;10.174;2023-02-22T05:59:32;97750.09;;;5.72;93.25
19884;BME280;10104;50.732;10.174;2023-02-22T06:01:54;97741.88;;;5.75;93.60
19884;BME280;10104;50.732;10.174;2023-02-22T06:04:15;97741.41;;;5.80;93.39
19884;BME280;10104;50.732;10.174;2023-02-22T06:06:37;97743.22;;;5.79;93.04
19884;BME280;10104;50.732;10.174;2023-02-22T06:08:58;97748.44;;;5.71;94.94
19884;BME280;10104;50.732;10.174;2023-02-22T06:11:20;97739.94;;;5.85;93.54
19884;BME280;10104;50.732;10.174;2023-02-22T06:13:48;97741.97;;;5.91;93.12
19884;BME280;10104;50.732;10.174;2023-02-22T06:16:09;97736.38;;;6.02;93.09
19884;BME280;10104;50.732;10.174;2023-02-22T06:18:31;97743.41;;;5.86;94.27
19884;BME280;10104;50.732;10.174;2023-02-22T06:20:53;97747.72;;;6.03;92.91
19884;BME280;10104;50.732;10.174;2023-02-22T06:23:14;97746.53;;;5.89;94.16
19884;BME280;10104;50.732;10.174;2023-02-22T06:25:36;97744.06;;;5.88;93.52
19884;BME280;10104;50.732;10.174;2023-02-22T06:27:59;97747.69;;;5.95;93.05
19884;BME280;10104;50.732;10.174;2023-02-22T06:30:22;97754.19;;;5.75;93.85
19884;BME280;10104;50.732;10.174;2023-02-22T06:32:44;97757.16;;;5.72;94.10
19884;BME280;10104;50.732;10.174;2023-02-22T06:35:06;97746.81;;;5.78;93.99
19884;BME280;10104;50.732;10.174;2023-02-22T06:37:28;97751.94;;;5.80;94.40
19884;BME280;10104;50.732;10.174;2023-02-22T06:39:49;97757.31;;;5.70;95.09
19884;BME280;10104;50.732;10.174;2023-02-22T06:42:10;97755.34;;;5.80;94.26
19884;BME280;10104;50.732;10.174;2023-02-22T06:44:32;97749.31;;;5.88;94.07
19884;BME280;10104;50.732;10.174;2023-02-22T06:46:54;97755.16;;;5.65;96.04
19884;BME280;10104;50.732;10.174;2023-02-22T06:49:17;97755.03;;;5.83;94.84
19884;BME280;10104;50.732;10.174;2023-02-22T06:51:39;97757.91;;;5.98;94.37
19884;BME280;10104;50.732;10.174;2023-02-22T06:54:01;97762.69;;;6.11;93.93
19884;BME280;10104;50.732;10.174;2023-02-22T06:56:22;97762.19;;;6.15;93.58
19884;BME280;10104;50.732;10.174;2023-02-22T06:58:44;97767.25;;;6.25;93.63
19884;BME280;10104;50.732;10.174;2023-02-22T07:01:05;97753.47;;;6.31;93.47
19884;BME280;10104;50.732;10.174;2023-02-22T07:03:28;97759.06;;;6.44;92.67
19884;BME280;10104;50.732;10.174;2023-02-22T07:05:49;97761.34;;;6.31;94.55
19884;BME280;10104;50.732;10.174;2023-02-22T07:08:11;97748.88;;;6.41;93.83
19884;BME280;10104;50.732;10.174;2023-02-22T07:10:34;97760.69;;;6.53;93.71
19884;BME280;10104;50.732;10.174;2023-02-22T07:12:56;97755.91;;;6.57;93.84
19884;BME280;10104;50.732;10.174;2023-02-22T07:15:20;97763.31;;;6.69;93.33
19884;BME280;10104;50.732;10.174;2023-02-22T07:17:42;97765.25;;;6.75;93.98
19884;BME280;10104;50.732;10.174;2023-02-22T07:20:04;97775.28;;;6.88;93.28
19884;BME280;10104;50.732;10.174;2023-02-22T07:22:26;97771.47;;;6.99;92.59
19884;BME280;10104;50.732;10.174;2023-02-22T07:24:47;97763.41;;;7.00;93.42
19884;BME280;10104;50.732;10.174;2023-02-22T07:27:09;97772.25;;;7.15;92.43
19884;BME280;10104;50.732;10.174;2023-02-22T07:29:30;97769.94;;;7.12;93.60
19884;BME280;10104;50.732;10.174;2023-02-22T07:31:52;97771.44;;;7.15;94.17
19884;BME280;10104;50.732;10.174;2023-02-22T07:34:13;97770.75;;;7.21;93.42
19884;BME280;10104;50.732;10.174;2023-02-22T07:36:35;97776.84;;;7.21;93.97
19884;BME280;10104;50.732;10.174;2023-02-22T07:38:56;97773.97;;;7.39;93.25
19884;BME280;10104;50.732;10.174;2023-02-22T07:41:18;97768.19;;;7.44;93.10
19884;BME280;10104;50.732;10.174;2023-02-22T07:43:39;97765.94;;;7.32;94.70
19884;BME280;10104;50.732;10.174;2023-02-22T07:46:01;97769.69;;;7.38;94.50
19884;BME280;10104;50.732;10.174;2023-02-22T07:48:25;97769.31;;;7.49;93.99
19884;BME280;10104;50.732;10.174;2023-02-22T07:50:48;97772.38;;;7.61;93.48
19884;BME280;10104;50.732;10.174;2023-02-22T07:53:18;97768.91;;;7.68;93.74
19884;BME280;10104;50.732;10.174;2023-02-22T07:55:40;97767.91;;;7.69;93.63
19884;BME280;10104;50.732;10.174;2023-02-22T07:58:04;97764.34;;;7.85;93.07
19884;BME280;10104;50.732;10.174;2023-02-22T08:00:27;97760.19;;;7.91;92.96
19884;BME280;10104;50.732;10.174;2023-02-22T08:02:49;97759.75;;;8.10;92.12
19884;BME280;10104;50.732;10.174;2023-02-22T08:05:12;97757.25;;;8.08;93.55
19884;BME280;10104;50.732;10.174;2023-02-22T08:07:34;97763.38;;;8.09;94.00
19884;BME280;10104;50.732;10.174;2023-02-22T08:09:55;97758.16;;;8.24;93.82
19884;BME280;10104;50.732;10.174;2023-02-22T08:12:17;97762.34;;;8.41;92.81
19884;BME280;10104;50.732;10.174;2023-02-22T08:14:38;97759.75;;;8.56;92.35
19884;BME280;10104;50.732;10.174;2023-02-22T08:17:00;97763.56;;;8.53;93.43
19884;BME280;10104;50.732;10.174;2023-02-22T08:19:21;97765.31;;;8.61;93.40
19884;BME280;10104;50.732;10.174;2023-02-22T08:21:43;97761.88;;;8.75;92.62
19884;BME280;10104;50.732;10.174;2023-02-22T08:24:05;97754.88;;;8.82;92.66
19884;BME280;10104;50.732;10.174;2023-02-22T08:26:26;97748.16;;;8.94;92.11
19884;BME280;10104;50.732;10.174;2023-02-22T08:28:48;97751.16;;;8.76;93.99
19884;BME280;10104;50.732;10.174;2023-02-22T08:31:09;97752.69;;;8.85;93.48
19884;BME280;10104;50.732;10.174;2023-02-22T08:33:31;97744.97;;;8.99;93.00
19884;BME280;10104;50.732;10.174;2023-02-22T08:35:53;97750.25;;;9.13;92.19
19884;BME280;10104;50.732;10.174;2023-02-22T08:40:37;97747.34;;;9.38;91.33
19884;BME280;10104;50.732;10.174;2023-02-22T08:42:59;97743.41;;;9.48;91.13
19884;BME280;10104;50.732;10.174;2023-02-22T08:45:22;97745.72;;;9.58;90.85
19884;BME280;10104;50.732;10.174;2023-02-22T08:47:44;97749.47;;;9.63;91.34
19884;BME280;10104;50.732;10.174;2023-02-22T08:50:07;97746.56;;;9.58;93.43
19884;BME280;10104;50.732;10.174;2023-02-22T08:52:29;97745.31;;;9.75;93.63
19884;BME280;10104;50.732;10.174;2023-02-22T08:54:50;97743.09;;;9.94;93.22
19884;BME280;10104;50.732;10.174;2023-02-22T08:57:13;97745.44;;;10.03;93.21
19884;BME280;10104;50.732;10.174;2023-02-22T08:59:34;97742.81;;;10.25;92.78
19884;BME280;10104;50.732;10.174;2023-02-22T09:01:56;97737.22;;;10.34;93.81
19884;BME280;10104;50.732;10.174;2023-02-22T09:04:17;97735.88;;;10.45;95.19
19884;BME280;10104;50.732;10.174;2023-02-22T09:06:40;97734.81;;;10.39;97.96
19884;BME280;10104;50.732;10.174;2023-02-22T09:09:02;97737.69;;;10.44;98.58
19884;BME280;10104;50.732;10.174;2023-02-22T09:11:23;97740.28;;;10.59;97.46
19884;BME280;10104;50.732;10.174;2023-02-22T09:13:45;97732.00;;;10.69;97.39
19884;BME280;10104;50.732;10.174;2023-02-22T09:16:06;97730.78;;;10.71;98.36
19884;BME280;10104;50.732;10.174;2023-02-22T09:18:28;97734.63;;;10.97;96.47
19884;BME280;10104;50.732;10.174;2023-02-22T09:21:04;97730.03;;;11.12;95.92
19884;BME280;10104;50.732;10.174;2023-02-22T09:23:25;97726.44;;;11.26;95.36
19884;BME280;10104;50.732;10.174;2023-02-22T09:25:47;97735.66;;;11.36;95.17
19884;BME280;10104;50.732;10.174;2023-02-22T09:28:09;97731.16;;;11.30;96.29
19884;BME280;10104;50.732;10.174;2023-02-22T09:30:33;97730.44;;;11.56;94.57
19884;BME280;10104;50.732;10.174;2023-02-22T09:32:58;97722.16;;;11.66;94.78
19884;BME280;10104;50.732;10.174;2023-02-22T09:35:20;97726.66;;;11.72;94.17
19884;BME280;10104;50.732;10.174;2023-02-22T09:37:47;97722.72;;;11.61;95.32
19884;BME280;10104;50.732;10.174;2023-02-22T09:40:15;97720.97;;;11.82;94.62
19884;BME280;10104;50.732;10.174;2023-02-22T09:43:40;97714.69;;;11.89;94.38
19884;BME280;10104;50.732;10.174;2023-02-22T09:48:06;97716.59;;;12.22;93.63
19884;BME280;10104;50.732;10.174;2023-02-22T09:50:44;97712.69;;;12.31;93.41
19884;BME280;10104;50.732;10.174;2023-02-22T09:55:39;97703.91;;;12.89;91.22
19884;BME280;10104;50.732;10.174;2023-02-22T10:00:45;97695.91;;;12.96;90.86
19884;BME280;10104;50.732;10.174;2023-02-22T10:03:29;97692.63;;;12.94;90.47
19884;BME280;10104;50.732;10.174;2023-02-22T10:06:02;97691.78;;;13.26;89.32
19884;BME280;10104;50.732;10.174;2023-02-22T10:08:28;97691.63;;;13.53;88.44
19884;BME280;10104;50.732;10.174;2023-02-22T10:11:00;97678.66;;;13.76;86.70
19884;BME280;10104;50.732;10.174;2023-02-22T10:13:47;97683.59;;;13.66;87.62
19884;BME280;10104;50.732;10.174;2023-02-22T10:24:56;97669.63;;;13.77;88.37
19884;BME280;10104;50.732;10.174;2023-02-22T10:27:41;97669.91;;;14.00;86.11
19884;BME280;10104;50.732;10.174;2023-02-22T10:30:22;97664.34;;;14.02;85.93
19884;BME280;10104;50.732;10.174;2023-02-22T10:35:37;97659.75;;;14.15;85.11
19884;BME280;10104;50.732;10.174;2023-02-22T10:38:11;97659.31;;;14.18;85.22
19884;BME280;10104;50.732;10.174;2023-02-22T10:40:35;97664.44;;;14.45;84.33
19884;BME280;10104;50.732;10.174;2023-02-22T10:43:08;97649.91;;;14.66;82.32
19884;BME280;10104;50.732;10.174;2023-02-22T10:45:32;97648.53;;;14.81;81.03
19884;BME280;10104;50.732;10.174;2023-02-22T10:47:56;97654.31;;;14.78;81.03
19884;BME280;10104;50.732;10.174;2023-02-22T10:50:20;97649.44;;;14.26;79.15
19884;BME280;10104;50.732;10.174;2023-02-22T10:52:42;97645.97;;;14.25;81.15
19884;BME280;10104;50.732;10.174;2023-02-22T10:55:03;97644.53;;;14.23;80.84
19884;BME280;10104;50.732;10.174;2023-02-22T10:57:36;97638.22;;;13.92;80.68
19884;BME280;10104;50.732;10.174;2023-02-22T11:00:22;97640.13;;;14.10;81.67
19884;BME280;10104;50.732;10.174;2023-02-22T11:02:55;97642.13;;;14.14;81.09
19884;BME280;10104;50.732;10.174;2023-02-22T11:08:13;97638.72;;;13.76;83.23
19884;BME280;10104;50.732;10.174;2023-02-22T11:10:37;97632.75;;;13.81;83.18
19884;BME280;10104;50.732;10.174;2023-02-22T11:13:22;97633.25;;;13.96;82.18
19884;BME280;10104;50.732;10.174;2023-02-22T11:15:46;97627.88;;;14.02;81.53
19884;BME280;10104;50.732;10.174;2023-02-22T11:18:21;97628.59;;;13.91;80.27
19884;BME280;10104;50.732;10.174;2023-02-22T11:20:43;97624.75;;;13.87;81.13
19884;BME280;10104;50.732;10.174;2023-02-22T11:23:05;97621.78;;;13.95;79.58
19884;BME280;10104;50.732;10.174;2023-02-22T11:25:39;97623.06;;;13.93;80.10
19884;BME280;10104;50.732;10.174;2023-02-22T11:28:26;97616.25;;;13.97;78.47
19884;BME280;10104;50.732;10.174;2023-02-22T11:30:51;97616.97;;;14.35;80.01
19884;BME280;10104;50.732;10.174;2023-02-22T11:35:54;97615.06;;;14.67;77.90
19884;BME280;10104;50.732;10.174;2023-02-22T11:38:23;97610.47;;;14.74;78.02
19884;BME280;10104;50.732;10.174;2023-02-22T11:40:45;97599.56;;;14.76;77.20
19884;BME280;10104;50.732;10.174;2023-02-22T11:43:18;97599.97;;;14.79;76.59
19884;BME280;10104;50.732;10.174;2023-02-22T11:46:11;97594.56;;;15.04;76.01
19884;BME280;10104;50.732;10.174;2023-02-22T11:48:36;97583.44;;;15.37;74.08
19884;BME280;10104;50.732;10.174;2023-02-22T11:51:08;97587.00;;;15.31;73.99
19884;BME280;10104;50.732;10.174;2023-02-22T12:01:10;97572.81;;;15.67;74.04
19884;BME280;10104;50.732;10.174;2023-02-22T12:09:33;97560.94;;;16.16;69.50
19884;BME280;10104;50.732;10.174;2023-02-22T12:14:54;97557.56;;;16.32;68.13
19884;BME280;10104;50.732;10.174;2023-02-22T12:17:43;97563.94;;;16.43;66.50
19884;BME280;10104;50.732;10.174;2023-02-22T12:20:38;97550.25;;;16.39;64.89
19884;BME280;10104;50.732;10.174;2023-02-22T12:23:14;97553.72;;;16.40;67.43
19884;BME280;10104;50.732;10.174;2023-02-22T12:25:55;97544.66;;;16.17;64.63
19884;BME280;10104;50.732;10.174;2023-02-22T12:28:22;97550.81;;;16.41;65.47
19884;BME280;10104;50.732;10.174;2023-02-22T12:30:56;97537.56;;;16.70;65.71
19884;BME280;10104;50.732;10.174;2023-02-22T12:33:27;97546.84;;;16.67;61.96
19884;BME280;10104;50.732;10.174;2023-02-22T12:35:55;97542.31;;;16.56;63.98
19884;BME280;10104;50.732;10.174;2023-02-22T12:38:29;97543.72;;;16.70;64.48
19884;BME280;10104;50.732;10.174;2023-02-22T12:41:07;97535.34;;;16.67;65.03
19884;BME280;10104;50.732;10.174;2023-02-22T12:43:35;97535.81;;;16.64;65.73
19884;BME280;10104;50.732;10.174;2023-02-22T12:48:45;97535.59;;;16.65;66.04
19884;BME280;10104;50.732;10.174;2023-02-22T12:53:55;97536.59;;;16.87;65.99
19884;BME280;10104;50.732;10.174;2023-02-22T13:01:41;97522.31;;;17.38;60.80
19884;BME280;10104;50.732;10.174;2023-02-22T13:04:04;97519.06;;;17.65;60.07
19884;BME280;10104;50.732;10.174;2023-02-22T13:06:47;97517.91;;;17.61;59.44
19884;BME280;10104;50.732;10.174;2023-02-22T13:09:52;97515.66;;;17.86;60.05
19884;BME280;10104;50.732;10.174;2023-02-22T13:12:23;97508.59;;;17.97;56.36
19884;BME280;10104;50.732;10.174;2023-02-22T13:15:22;97515.91;;;17.85;57.89
19884;BME280;10104;50.732;10.174;2023-02-22T13:18:01;97511.66;;;18.22;55.24
19884;BME280;10104;50.732;10.174;2023-02-22T13:20:39;97516.06;;;18.11;54.19
19884;BME280;10104;50.732;10.174;2023-02-22T13:26:08;97510.50;;;18.35;53.46
19884;BME280;10104;50.732;10.174;2023-02-22T13:31:28;97503.41;;;18.07;55.86
19884;BME280;10104;50.732;10.174;2023-02-22T13:37:22;97499.09;;;18.06;56.61
19884;BME280;10104;50.732;10.174;2023-02-22T13:51:50;97487.88;;;18.09;53.70
19884;BME280;10104;50.732;10.174;2023-02-22T13:56:42;97484.06;;;18.05;52.83
19884;BME280;10104;50.732;10.174;2023-02-22T13:59:04;97483.84;;;18.45;52.29
19884;BME280;10104;50.732;10.174;2023-02-22T14:06:48;97479.47;;;18.00;51.60
19884;BME280;10104;50.732;10.174;2023-02-22T14:09:14;97478.47;;;18.06;52.17
19884;BME280;10104;50.732;10.174;2023-02-22T14:11:39;97472.31;;;17.89;51.10
19884;BME280;10104;50.732;10.174;2023-02-22T14:16:29;97466.97;;;17.72;51.16
19884;BME280;10104;50.732;10.174;2023-02-22T14:19:11;97467.13;;;17.99;51.82
19884;BME280;10104;50.732;10.174;2023-02-22T14:21:34;97467.84;;;17.95;52.22
19884;BME280;10104;50.732;10.174;2023-02-22T14:24:05;97472.38;;;17.77;56.25
19884;BME280;10104;50.732;10.174;2023-02-22T14:26:33;97467.38;;;17.64;57.43
19884;BME280;10104;50.732;10.174;2023-02-22T14:31:32;97472.91;;;17.74;57.75
19884;BME280;10104;50.732;10.174;2023-02-22T14:36:33;97462.69;;;17.43;58.37
19884;BME280;10104;50.732;10.174;2023-02-22T14:41:30;97464.78;;;17.69;57.97
19884;BME280;10104;50.732;10.174;2023-02-22T14:43:54;97465.56;;;17.87;57.68
19884;BME280;10104;50.732;10.174;2023-02-22T14:46:20;97465.53;;;17.53;56.86